Archival Weather

Chicago O'Hare International

Chicago, Illinois (KORD)

Report from: Sunday, March 6, 2022 10:51 AM CST
Current time: Saturday, February 4, 2023 10:00 PM CST

Current weather
Weather history
Weather forecast

Temperature2.8°C (37.0°F)
Wind chill-2.6°C (27.3°F)
Dew point-3.3°C (26.1°F)
Winds 15 kts (7.7 m/s, 17.3 mph) West (260°)
Wind gusts 31 kts (15.9 m/s, 35.7 mph)
Peak wind 36 kts (18.5 m/s, 41.4 mph) West (270°) at 10:02
Visibility10 mi. (16.1 km)
Clouds Ceiling: Overcast 1,900 ft. (579 m)
Altimeter29.98 in.Hg (1015 mB)
Relative humidity64 %
Density altitude-1,474 ft. (-449 m)
Sea-level pressure101.5 kPa (1015 mB, 29.98 in.Hg)
Remarks System requires maintenance
Automated weather observing station with precipitation discriminator
Flight conditions Marginal Visual Meteorological Conditions
Raw dataKORD 061651Z 26015G31KT 10SM OVC019 03/M03 A2998 RMK AO2 PK WND 27036/1602 SLP154 T00281033 $
An unhandled exception has occurred. See browser dev tools for details. Reload 🗙